Time,TemperatureF,DewpointF,PressureIn,WindDirection,WindDirectionDegrees,WindSpeedMPH,WindSpeedGustMPH,Humidity,HourlyPrecipIn,Conditions,Clouds,dailyrainin,SoftwareType,DateUTC
2013-07-12 00:02:00,67.0,54.0,29.74,NNW,339,2.0,5.0,64,0.00,,,1.07,,2013-07-12 05:02:00,
2013-07-12 00:11:00,67.0,54.0,29.74,NNW,339,2.0,5.0,64,0.00,,,1.07,,2013-07-12 05:11:00,
2013-07-12 00:22:00,68.0,53.0,29.74,SSE,147,3.0,9.0,59,0.00,,,1.07,,2013-07-12 05:22:00,
2013-07-12 00:32:00,68.0,53.0,29.74,SSE,147,3.0,9.0,59,0.00,,,1.07,,2013-07-12 05:32:00,
2013-07-12 00:43:00,68.0,53.0,29.74,SSE,147,3.0,9.0,59,0.00,,,1.07,,2013-07-12 05:43:00,
2013-07-12 00:53:00,67.0,54.0,29.81,SSW,205,0.0,12.0,64,0.00,,,1.07,,2013-07-12 05:53:00,
2013-07-12 01:01:00,67.0,54.0,29.81,SSW,205,0.0,12.0,64,0.00,,,1.07,,2013-07-12 06:01:00,
2013-07-12 01:11:00,67.0,54.0,29.81,SSW,205,0.0,12.0,64,0.00,,,1.07,,2013-07-12 06:11:00,
2013-07-12 01:22:00,67.0,54.0,29.80,ENE,73,3.0,13.0,63,0.00,,,1.07,,2013-07-12 06:22:00,
2013-07-12 01:32:00,67.0,54.0,29.80,ENE,73,3.0,13.0,63,0.00,,,1.07,,2013-07-12 06:32:00,
2013-07-12 01:42:00,67.0,54.0,29.80,ENE,73,3.0,13.0,63,0.00,,,1.07,,2013-07-12 06:42:00,
2013-07-12 01:52:00,65.0,55.0,29.78,SE,144,0.0,7.0,70,0.00,,,1.07,,2013-07-12 06:52:00,
2013-07-12 02:02:00,65.0,55.0,29.78,SE,144,0.0,7.0,70,0.00,,,1.07,,2013-07-12 07:02:00,
2013-07-12 02:12:00,65.0,55.0,29.78,SE,144,0.0,7.0,70,0.00,,,1.07,,2013-07-12 07:12:00,
2013-07-12 02:22:00,63.0,54.0,29.78,ESE,114,0.0,3.0,72,0.00,,,1.07,,2013-07-12 07:22:00,
2013-07-12 02:32:00,63.0,54.0,29.78,ESE,114,0.0,3.0,72,0.00,,,1.07,,2013-07-12 07:32:00,
2013-07-12 02:43:00,63.0,54.0,29.78,ESE,114,0.0,3.0,72,0.00,,,1.07,,2013-07-12 07:43:00,
2013-07-12 02:52:00,63.0,54.0,29.74,ESE,112,2.0,10.0,72,0.00,,,1.07,,2013-07-12 07:52:00,
2013-07-12 03:01:00,63.0,54.0,29.74,ESE,112,2.0,10.0,72,0.00,,,1.07,,2013-07-12 08:01:00,
2013-07-12 03:11:00,63.0,54.0,29.74,ESE,112,2.0,10.0,72,0.00,,,1.07,,2013-07-12 08:11:00,
2013-07-12 03:21:00,62.0,54.0,29.75,ESE,109,0.0,3.0,76,0.00,,,1.07,,2013-07-12 08:21:00,
2013-07-12 03:32:00,62.0,54.0,29.75,ESE,109,0.0,3.0,76,0.00,,,1.07,,2013-07-12 08:32:00,
2013-07-12 03:42:00,62.0,54.0,29.75,ESE,109,0.0,3.0,76,0.00,,,1.07,,2013-07-12 08:42:00,
2013-07-12 03:53:00,59.0,54.0,29.79,ESE,109,1.0,2.0,84,0.00,,,1.07,,2013-07-12 08:53:00,
2013-07-12 04:02:00,59.0,54.0,29.79,ESE,109,1.0,2.0,84,0.00,,,1.07,,2013-07-12 09:02:00,
2013-07-12 04:12:00,59.0,54.0,29.79,ESE,109,1.0,2.0,84,0.00,,,1.07,,2013-07-12 09:12:00,
2013-07-12 04:32:00,56.0,52.0,29.80,ESE,109,0.0,2.0,88,0.00,,,1.07,,2013-07-12 09:32:00,
2013-07-12 04:43:00,56.0,52.0,29.80,ESE,109,0.0,2.0,88,0.00,,,1.07,,2013-07-12 09:43:00,
2013-07-12 04:52:00,56.0,53.0,29.87,ESE,110,0.0,3.0,91,0.00,,,1.07,,2013-07-12 09:52:00,
2013-07-12 05:01:00,56.0,53.0,29.87,ESE,110,0.0,3.0,91,0.00,,,1.07,,2013-07-12 10:01:00,
2013-07-12 05:11:00,56.0,53.0,29.87,ESE,110,0.0,3.0,91,0.00,,,1.07,,2013-07-12 10:11:00,
2013-07-12 05:22:00,56.0,54.0,29.87,ESE,110,0.0,2.0,92,0.00,,,1.07,,2013-07-12 10:22:00,
2013-07-12 05:33:00,56.0,54.0,29.87,ESE,110,0.0,2.0,92,0.00,,,1.07,,2013-07-12 10:33:00,
2013-07-12 05:42:00,56.0,54.0,29.87,ESE,110,0.0,2.0,92,0.00,,,1.07,,2013-07-12 10:42:00,
2013-07-12 05:52:00,56.0,54.0,29.87,ESE,110,0.0,3.0,92,0.00,,,1.07,,2013-07-12 10:52:00,
2013-07-12 06:02:00,56.0,54.0,29.87,ESE,110,0.0,3.0,92,0.00,,,1.07,,2013-07-12 11:02:00,
2013-07-12 06:11:00,56.0,54.0,29.87,ESE,110,0.0,3.0,92,0.00,,,1.07,,2013-07-12 11:11:00,
2013-07-12 06:22:00,55.0,53.0,29.87,ESE,110,0.0,1.0,93,0.00,,,1.07,,2013-07-12 11:22:00,
2013-07-12 06:32:00,55.0,53.0,29.87,ESE,110,0.0,1.0,93,0.00,,,1.07,,2013-07-12 11:32:00,
2013-07-12 06:43:00,55.0,53.0,29.87,ESE,110,0.0,1.0,93,0.00,,,1.07,,2013-07-12 11:43:00,
2013-07-12 06:53:00,55.0,53.0,29.85,ESE,110,0.0,3.0,94,0.00,,,1.07,,2013-07-12 11:53:00,
2013-07-12 07:01:00,55.0,53.0,29.85,ESE,110,0.0,3.0,94,0.00,,,1.07,,2013-07-12 12:01:00,
2013-07-12 07:11:00,55.0,53.0,29.85,ESE,110,0.0,3.0,94,0.00,,,1.07,,2013-07-12 12:11:00,
2013-07-12 07:32:00,54.0,52.0,29.87,ESE,110,0.0,0.0,94,0.01,,,1.08,,2013-07-12 12:32:00,
2013-07-12 08:01:00,55.0,54.0,29.86,ESE,109,0.0,1.0,95,0.01,,,1.08,,2013-07-12 13:01:00,
2013-07-12 08:12:00,55.0,54.0,29.86,ESE,109,0.0,1.0,95,0.01,,,1.08,,2013-07-12 13:12:00,
2013-07-12 08:22:00,59.0,58.0,29.83,ESE,109,0.0,1.0,96,0.00,,,1.08,,2013-07-12 13:22:00,
2013-07-12 08:32:00,59.0,58.0,29.83,ESE,109,0.0,1.0,96,0.00,,,1.08,,2013-07-12 13:32:00,
2013-07-12 08:43:00,59.0,58.0,29.83,ESE,109,0.0,1.0,96,0.00,,,1.08,,2013-07-12 13:43:00,
2013-07-12 08:53:00,64.0,60.0,29.85,SSE,160,0.0,3.0,86,0.00,,,1.08,,2013-07-12 13:53:00,
2013-07-12 09:02:00,64.0,60.0,29.85,SSE,160,0.0,3.0,86,0.00,,,1.08,,2013-07-12 14:02:00,
2013-07-12 09:11:00,64.0,60.0,29.85,SSE,160,0.0,3.0,86,0.00,,,1.08,,2013-07-12 14:11:00,
2013-07-12 09:22:00,70.0,59.0,29.81,SSE,160,1.0,2.0,67,0.00,,,1.08,,2013-07-12 14:22:00,
2013-07-12 09:32:00,70.0,59.0,29.81,SSE,160,1.0,2.0,67,0.00,,,1.08,,2013-07-12 14:32:00,
2013-07-12 09:44:00,70.0,59.0,29.81,SSE,160,1.0,2.0,67,0.00,,,1.08,,2013-07-12 14:44:00,
2013-07-12 09:53:00,74.0,58.0,29.82,ENE,64,1.0,5.0,58,0.00,,,1.08,,2013-07-12 14:53:00,
2013-07-12 10:01:00,74.0,58.0,29.82,ENE,64,1.0,5.0,58,0.00,,,1.08,,2013-07-12 15:01:00,
2013-07-12 10:11:00,74.0,58.0,29.82,ENE,64,1.0,5.0,58,0.00,,,1.08,,2013-07-12 15:11:00,
2013-07-12 10:22:00,75.0,56.0,29.80,SE,124,1.0,6.0,52,0.00,,,1.08,,2013-07-12 15:22:00,
2013-07-12 10:33:00,75.0,56.0,29.80,SE,124,1.0,6.0,52,0.00,,,1.08,,2013-07-12 15:33:00,
2013-07-12 10:43:00,75.0,56.0,29.80,SE,124,1.0,6.0,52,0.00,,,1.08,,2013-07-12 15:43:00,
2013-07-12 10:53:00,77.0,54.0,29.76,South,191,1.0,6.0,45,0.00,,,1.08,,2013-07-12 15:53:00,
2013-07-12 11:01:00,77.0,54.0,29.76,South,191,1.0,6.0,45,0.00,,,1.08,,2013-07-12 16:01:00,
2013-07-12 11:11:00,77.0,54.0,29.76,South,191,1.0,6.0,45,0.00,,,1.08,,2013-07-12 16:11:00,
2013-07-12 11:22:00,78.0,53.0,29.75,SSW,202,0.0,6.0,42,0.00,,,1.08,,2013-07-12 16:22:00,
2013-07-12 11:32:00,78.0,53.0,29.75,SSW,202,0.0,6.0,42,0.00,,,1.08,,2013-07-12 16:32:00,
2013-07-12 11:43:00,78.0,53.0,29.75,SSW,202,0.0,6.0,42,0.00,,,1.08,,2013-07-12 16:43:00,
2013-07-12 11:58:00,79.0,55.0,29.73,East,88,3.0,6.0,43,0.00,,,1.08,,2013-07-12 16:58:00,
2013-07-12 12:05:00,79.0,55.0,29.73,East,88,3.0,6.0,43,0.00,,,1.08,,2013-07-12 17:05:00,
2013-07-12 12:13:00,79.0,55.0,29.73,East,88,3.0,6.0,43,0.00,,,1.08,,2013-07-12 17:13:00,
2013-07-12 12:23:00,80.0,55.0,29.72,SE,143,2.0,7.0,43,0.00,,,1.08,,2013-07-12 17:23:00,
2013-07-12 12:35:00,80.0,55.0,29.72,SE,143,2.0,7.0,43,0.00,,,1.08,,2013-07-12 17:35:00,
2013-07-12 12:47:00,80.0,55.0,29.72,SE,143,2.0,7.0,43,0.00,,,1.08,,2013-07-12 17:47:00,
2013-07-12 13:05:00,82.0,54.0,29.73,ENE,65,2.0,12.0,38,0.00,,,1.05,,2013-07-12 18:05:00,
2013-07-12 13:14:00,82.0,54.0,29.73,ENE,65,2.0,12.0,38,0.00,,,1.05,,2013-07-12 18:14:00,
2013-07-12 13:26:00,82.0,54.0,29.72,ENE,76,3.0,12.0,38,0.00,,,0.97,,2013-07-12 18:26:00,
2013-07-12 13:34:00,82.0,54.0,29.72,ENE,76,3.0,12.0,38,0.00,,,0.97,,2013-07-12 18:34:00,
2013-07-12 13:50:00,82.0,54.0,29.72,ENE,76,3.0,12.0,38,0.00,,,0.97,,2013-07-12 18:50:00,
2013-07-12 13:57:00,83.0,52.0,29.73,ENE,76,2.0,8.0,34,0.00,,,0.96,,2013-07-12 18:57:00,
2013-07-12 14:04:00,83.0,52.0,29.73,ENE,76,2.0,8.0,34,0.00,,,0.96,,2013-07-12 19:04:00,
2013-07-12 14:15:00,83.0,52.0,29.73,ENE,76,2.0,8.0,34,0.00,,,0.96,,2013-07-12 19:15:00,
2013-07-12 14:22:00,81.0,47.0,29.73,ENE,76,2.0,8.0,31,0.00,,,0.87,,2013-07-12 19:22:00,
2013-07-12 14:32:00,81.0,47.0,29.73,ENE,76,2.0,8.0,31,0.00,,,0.87,,2013-07-12 19:32:00,
2013-07-12 14:47:00,81.0,47.0,29.73,ENE,76,2.0,8.0,31,0.00,,,0.87,,2013-07-12 19:47:00,
2013-07-12 14:58:00,84.0,47.0,29.73,NNE,14,2.0,10.0,28,0.00,,,0.87,,2013-07-12 19:58:00,
2013-07-12 15:13:00,84.0,47.0,29.73,NNE,14,2.0,10.0,28,0.00,,,0.87,,2013-07-12 20:13:00,
2013-07-12 15:24:00,84.0,46.0,29.72,ESE,113,3.0,8.0,27,0.00,,,0.86,,2013-07-12 20:24:00,
2013-07-12 15:33:00,84.0,46.0,29.72,ESE,113,3.0,8.0,27,0.00,,,0.86,,2013-07-12 20:33:00,
2013-07-12 15:55:00,85.0,47.0,29.73,NNE,28,1.0,8.0,27,0.00,,,0.86,,2013-07-12 20:55:00,
2013-07-12 16:02:00,85.0,47.0,29.73,NNE,28,1.0,8.0,27,0.00,,,0.86,,2013-07-12 21:02:00,
2013-07-12 16:25:00,84.0,46.0,29.73,NE,38,1.0,10.0,27,0.00,,,0.86,,2013-07-12 21:25:00,
2013-07-12 16:33:00,84.0,46.0,29.73,NE,38,1.0,10.0,27,0.00,,,0.86,,2013-07-12 21:33:00,
2013-07-12 16:48:00,84.0,46.0,29.73,NE,38,1.0,10.0,27,0.00,,,0.86,,2013-07-12 21:48:00,
2013-07-12 16:58:00,84.0,43.0,29.72,North,11,1.0,7.0,24,0.00,,,0.85,,2013-07-12 21:58:00,
2013-07-12 17:15:00,84.0,43.0,29.72,North,11,1.0,7.0,24,0.00,,,0.85,,2013-07-12 22:15:00,
2013-07-12 17:23:00,84.0,45.0,29.71,East,80,2.0,7.0,26,0.00,,,0.63,,2013-07-12 22:23:00,
2013-07-12 17:33:00,84.0,45.0,29.71,East,80,2.0,7.0,26,0.00,,,0.63,,2013-07-12 22:33:00,
2013-07-12 17:56:00,83.0,48.0,29.72,ENE,66,2.0,8.0,30,0.00,,,0.37,,2013-07-12 22:56:00,
2013-07-12 18:03:00,83.0,48.0,29.72,ENE,66,2.0,8.0,30,0.00,,,0.37,,2013-07-12 23:03:00,
2013-07-12 18:13:00,83.0,48.0,29.72,ENE,66,2.0,8.0,30,0.00,,,0.37,,2013-07-12 23:13:00,
2013-07-12 18:23:00,84.0,47.0,29.71,ENE,73,5.0,12.0,28,0.00,,,0.08,,2013-07-12 23:23:00,
2013-07-12 18:33:00,84.0,47.0,29.71,ENE,73,5.0,12.0,28,0.00,,,0.08,,2013-07-12 23:33:00,
2013-07-12 18:45:00,84.0,47.0,29.71,ENE,73,5.0,12.0,28,0.00,,,0.08,,2013-07-12 23:45:00,
2013-07-12 18:58:00,82.0,45.0,29.72,East,96,2.0,12.0,27,0.00,,,0.01,,2013-07-12 23:58:00,
2013-07-12 19:04:00,82.0,45.0,29.72,East,96,2.0,12.0,27,0.00,,,0.01,,2013-07-13 00:04:00,
2013-07-12 19:16:00,82.0,45.0,29.72,East,96,2.0,12.0,27,0.00,,,0.01,,2013-07-13 00:16:00,
2013-07-12 19:25:00,83.0,47.0,29.70,ESE,121,1.0,7.0,28,0.00,,,0.01,,2013-07-13 00:25:00,
2013-07-12 19:32:00,83.0,47.0,29.70,ESE,121,1.0,7.0,28,0.00,,,0.01,,2013-07-13 00:32:00,
2013-07-12 19:49:00,83.0,47.0,29.70,ESE,121,1.0,7.0,28,0.00,,,0.01,,2013-07-13 00:49:00,
2013-07-12 19:56:00,83.0,47.0,29.70,ESE,121,1.0,7.0,28,0.00,,,0.01,,2013-07-13 00:56:00,
2013-07-12 20:24:00,82.0,46.0,29.69,ESE,114,6.0,14.0,28,0.00,,,0.01,,2013-07-13 01:24:00,
2013-07-12 20:35:00,80.0,47.0,29.70,SE,131,2.0,12.0,32,0.00,,,0.01,,2013-07-13 01:35:00,
2013-07-12 20:56:00,79.0,48.0,29.65,ENE,75,4.0,12.0,34,0.00,,,0.01,,2013-07-13 01:56:00,
2013-07-12 21:04:00,79.0,48.0,29.65,ENE,75,4.0,12.0,34,0.00,,,0.01,,2013-07-13 02:04:00,
2013-07-12 21:14:00,79.0,48.0,29.65,ENE,75,4.0,12.0,34,0.00,,,0.01,,2013-07-13 02:14:00,
2013-07-12 21:22:00,76.0,46.0,29.66,East,80,2.0,12.0,35,0.00,,,0.01,,2013-07-13 02:22:00,
2013-07-12 21:35:00,76.0,46.0,29.66,East,80,2.0,12.0,35,0.00,,,0.01,,2013-07-13 02:35:00,
2013-07-12 21:48:00,76.0,46.0,29.66,East,80,2.0,12.0,35,0.00,,,0.01,,2013-07-13 02:48:00,
2013-07-12 21:55:00,76.0,46.0,29.66,ESE,103,6.0,14.0,35,0.00,,,0.01,,2013-07-13 02:55:00,
2013-07-12 22:04:00,76.0,46.0,29.66,ESE,103,6.0,14.0,35,0.00,,,0.01,,2013-07-13 03:04:00,
2013-07-12 22:12:00,76.0,46.0,29.66,ESE,103,6.0,14.0,35,0.00,,,0.01,,2013-07-13 03:12:00,
2013-07-12 22:26:00,75.0,47.0,29.67,ESE,119,6.0,16.0,37,0.00,,,0.01,,2013-07-13 03:26:00,
2013-07-12 22:57:00,74.0,48.0,29.68,East,79,9.0,14.0,40,0.00,,,0.01,,2013-07-13 03:57:00,
2013-07-12 23:01:00,74.0,48.0,29.68,East,79,9.0,14.0,40,0.00,,,0.01,,2013-07-13 04:01:00,
2013-07-12 23:11:00,74.0,48.0,29.68,East,79,9.0,14.0,40,0.00,,,0.01,,2013-07-13 04:11:00,
2013-07-12 23:22:00,73.0,49.0,29.68,ENE,78,7.0,17.0,42,0.00,,,0.01,,2013-07-13 04:22:00,
2013-07-12 23:32:00,73.0,49.0,29.68,ENE,78,7.0,17.0,42,0.00,,,0.01,,2013-07-13 04:32:00,
2013-07-12 23:44:00,73.0,49.0,29.68,ENE,78,7.0,17.0,42,0.00,,,0.01,,2013-07-13 04:44:00,
2013-07-12 23:52:00,71.0,49.0,29.69,NW,326,3.0,15.0,45,0.00,,,0.01,,2013-07-13 04:52:00,